Time;durP1;ratioP1;P1;durP2;ratioP2;P2;SDS_P1;SDS_P2;PMS_P1;PMS_P2;Temp;Humidity;BMP_temperature;BMP_pressure;BME280_temperature;BME280_humidity;BME280_pressure;Samples;Min_cycle;Max_cycle;Signal;HPM_P1;HPM_P2
2023/06/05 00:00:21;;;;;;;5.80;2.83;;;;;;;-145.18;100.00;46672.13;4990767;28;20091;-60
2023/06/05 00:02:47;;;;;;;6.70;2.87;;;;;;;-145.18;100.00;46674.06;5005054;28;20045;-60
2023/06/05 00:05:15;;;;;;;10.77;3.27;;;;;;;-145.18;100.00;46660.41;5004164;28;20085;-60
2023/06/05 00:07:41;;;;;;;6.17;3.00;;;;;;;-145.18;100.00;46672.13;4986522;28;20041;-60
2023/06/05 00:10:08;;;;;;;5.37;3.40;;;;;;;-145.18;100.00;46677.97;5000531;28;20030;-60
2023/06/05 00:12:33;;;;;;;7.20;3.07;;;;;;;-145.18;100.00;46672.13;5007732;28;20030;-59
2023/06/05 00:14:59;;;;;;;4.60;2.80;;;;;;;-145.18;100.00;46670.16;5004306;28;20053;-60
2023/06/05 00:17:25;;;;;;;4.57;2.93;;;;;;;-145.18;100.00;46672.13;5010011;28;20030;-60
2023/06/05 00:19:50;;;;;;;5.77;3.20;;;;;;;-145.18;100.00;46666.25;5005470;28;20168;-60
2023/06/05 00:22:16;;;;;;;8.77;3.13;;;;;;;-145.18;100.00;46668.22;5003172;28;20041;-60
2023/06/05 00:24:41;;;;;;;8.07;3.03;;;;;;;-145.18;100.00;46664.31;4986595;28;20053;-60
2023/06/05 00:27:07;;;;;;;9.33;3.60;;;;;;;-145.18;100.00;46662.34;5004234;28;20029;-60
2023/06/05 00:29:32;;;;;;;5.53;3.10;;;;;;;-145.18;100.00;46666.25;4982796;28;20563;-60
2023/06/05 00:31:57;;;;;;;6.77;3.33;;;;;;;-145.18;100.00;46666.25;5006604;28;20392;-60
2023/06/05 00:34:23;;;;;;;6.50;3.57;;;;;;;-145.18;100.00;46662.34;5006468;28;20037;-60
2023/06/05 00:36:51;;;;;;;5.53;3.40;;;;;;;-145.18;100.00;46666.25;5002146;28;20044;-60
2023/06/05 00:39:18;;;;;;;6.17;3.50;;;;;;;-145.18;100.00;46660.41;5003789;28;20471;-60
2023/06/05 00:41:45;;;;;;;10.67;4.13;;;;;;;-145.18;100.00;46668.22;5000848;28;20274;-60
2023/06/05 00:44:11;;;;;;;5.87;3.73;;;;;;;-145.18;100.00;46662.34;5001521;28;20318;-60
2023/06/05 00:46:38;;;;;;;4.93;3.13;;;;;;;-145.18;100.00;46660.41;5008618;28;20072;-60
2023/06/05 00:49:04;;;;;;;6.63;3.70;;;;;;;-145.18;100.00;46668.22;5006159;28;20311;-60
2023/06/05 00:51:30;;;;;;;7.80;3.50;;;;;;;-145.18;100.00;46666.25;5006076;28;20363;-60
2023/06/05 00:53:55;;;;;;;6.63;3.07;;;;;;;-145.18;100.00;46660.41;4999076;28;20430;-60
2023/06/05 00:56:22;;;;;;;5.37;3.67;;;;;;;-145.18;100.00;46664.31;4989656;28;20383;-60
2023/06/05 00:58:48;;;;;;;8.97;4.13;;;;;;;-145.18;100.00;46656.50;5003104;28;20038;-62
2023/06/05 01:01:15;;;;;;;10.00;4.10;;;;;;;-145.18;100.00;46652.59;5003445;28;20272;-62
2023/06/05 01:03:41;;;;;;;11.43;3.50;;;;;;;-145.18;100.00;46658.44;4997923;28;20640;-60
2023/06/05 01:06:06;;;;;;;7.90;3.30;;;;;;;-145.18;100.00;46658.44;5000102;28;20752;-60
2023/06/05 01:08:38;;;;;;;6.10;3.60;;;;;;;-145.18;100.00;46654.53;5009374;28;20038;-62
2023/06/05 01:11:09;;;;;;;6.53;3.43;;;;;;;-145.18;100.00;46652.59;5004981;28;20032;-60
2023/06/05 01:13:38;;;;;;;9.43;4.03;;;;;;;-145.18;100.00;46652.59;5010268;28;20096;-62
2023/06/05 01:16:05;;;;;;;9.23;3.50;;;;;;;-145.18;100.00;46648.69;5001363;28;20263;-60
2023/06/05 01:18:31;;;;;;;6.70;3.80;;;;;;;-145.18;100.00;46654.53;4987902;28;20383;-60
2023/06/05 01:21:01;;;;;;;8.67;4.23;;;;;;;-145.18;100.00;46654.53;5010381;28;20113;-62
2023/06/05 01:23:29;;;;;;;7.07;4.20;;;;;;;-145.18;100.00;46656.50;4999039;28;20287;-62
2023/06/05 01:26:01;;;;;;;8.10;4.30;;;;;;;-145.18;100.00;46648.69;4990412;28;20314;-61
2023/06/05 01:28:31;;;;;;;6.80;4.03;;;;;;;-145.18;100.00;46650.63;5003349;28;20263;-60
2023/06/05 01:31:13;;;;;;;6.17;4.47;;;;;;;-145.18;100.00;46650.63;4997922;28;20274;-62
2023/06/05 01:33:49;;;;;;;8.67;4.23;;;;;;;-145.18;100.00;46648.69;5002454;28;20295;-62
2023/06/05 01:36:15;;;;;;;8.55;5.00;;;;;;;-145.18;100.00;46642.81;4995127;28;20521;-60
2023/06/05 01:38:43;;;;;;;11.53;4.80;;;;;;;-145.18;100.00;46652.59;5010483;28;20026;-62
2023/06/05 01:41:10;;;;;;;9.80;4.40;;;;;;;-145.18;100.00;46644.78;5004530;28;20295;-60
2023/06/05 01:43:37;;;;;;;7.77;4.50;;;;;;;-145.18;100.00;46646.72;5002943;28;20269;-61
2023/06/05 01:46:06;;;;;;;8.60;4.73;;;;;;;-145.18;100.00;46644.78;5000071;28;20275;-60
2023/06/05 01:48:32;;;;;;;7.90;4.53;;;;;;;-145.18;100.00;46642.81;5004044;28;20256;-60
2023/06/05 01:50:58;;;;;;;9.60;4.57;;;;;;;-145.18;100.00;46646.72;5002587;28;20745;-60
2023/06/05 01:53:24;;;;;;;6.37;4.17;;;;;;;-145.18;100.00;46681.88;4989229;28;20033;-60
2023/06/05 01:55:52;;;;;;;8.23;4.07;;;;;;;-145.18;100.00;46679.94;4989019;28;20271;-60
2023/06/05 01:58:19;;;;;;;6.70;4.33;;;;;;;-145.18;100.00;46679.94;5006485;28;20030;-60
2023/06/05 02:00:45;;;;;;;11.23;4.70;;;;;;;-145.18;100.00;46681.88;5005561;28;20304;-60
2023/06/05 02:03:10;;;;;;;7.63;4.67;;;;;;;-145.18;100.00;46679.94;5008082;28;20302;-62
2023/06/05 02:05:36;;;;;;;8.60;4.73;;;;;;;-145.18;100.00;46679.94;4987293;28;20065;-60
2023/06/05 02:08:05;;;;;;;9.33;4.50;;;;;;;-145.18;100.00;46642.81;4999202;28;20430;-60
2023/06/05 02:10:31;;;;;;;10.83;4.37;;;;;;;-145.18;100.00;46660.41;5005032;28;20042;-60
2023/06/05 02:12:57;;;;;;;11.13;4.77;;;;;;;-145.18;100.00;46660.41;5005689;28;20435;-60
2023/06/05 02:15:22;;;;;;;9.07;5.03;;;;;;;-145.18;100.00;46677.97;5002206;28;20772;-60
2023/06/05 02:17:53;;;;;;;13.57;4.50;;;;;;;-145.18;100.00;46679.94;5000147;28;20508;-60
2023/06/05 02:20:20;;;;;;;12.33;5.03;;;;;;;-145.18;100.00;46677.97;5006344;28;20040;-60
2023/06/05 02:22:49;;;;;;;9.40;4.80;;;;;;;-145.18;100.00;46677.97;5006221;28;20318;-62
2023/06/05 02:25:15;;;;;;;12.37;5.10;;;;;;;-145.18;100.00;46677.97;5003020;28;20305;-60
2023/06/05 02:27:41;;;;;;;12.60;5.03;;;;;;;-145.18;100.00;46660.41;5002391;28;20819;-63
2023/06/05 02:30:06;;;;;;;8.03;5.10;;;;;;;-145.18;100.00;46660.41;5005565;28;20169;-60
2023/06/05 02:32:32;;;;;;;8.13;4.97;;;;;;;-145.18;100.00;46660.41;5007321;28;20037;-62
2023/06/05 02:34:58;;;;;;;11.00;5.63;;;;;;;-145.18;100.00;46660.41;5009618;28;20445;-63
2023/06/05 02:37:26;;;;;;;8.53;5.17;;;;;;;-145.18;100.00;46677.97;5011080;28;20021;-63
2023/06/05 02:39:51;;;;;;;11.43;5.67;;;;;;;-145.18;100.00;46660.41;5009728;28;20418;-62
2023/06/05 02:42:18;;;;;;;9.67;4.47;;;;;;;-145.18;100.00;46660.41;5005878;28;20633;-62
2023/06/05 02:44:44;;;;;;;8.57;5.17;;;;;;;-145.18;100.00;46660.41;5012172;28;20122;-61
2023/06/05 02:47:09;;;;;;;10.53;5.30;;;;;;;-145.18;100.00;46660.41;5013673;28;20354;-61
2023/06/05 02:49:36;;;;;;;8.03;5.27;;;;;;;-145.18;100.00;46660.41;5012617;28;20100;-62
2023/06/05 02:52:02;;;;;;;8.90;5.33;;;;;;;-145.18;100.00;46660.41;5008905;28;20037;-61
2023/06/05 02:54:28;;;;;;;15.43;5.40;;;;;;;-145.18;100.00;46677.97;4987906;28;20271;-61
2023/06/05 02:56:56;;;;;;;9.83;5.47;;;;;;;-145.18;100.00;46660.41;5010929;28;20037;-61
2023/06/05 02:59:24;;;;;;;10.13;6.10;;;;;;;-145.18;100.00;46660.41;5001652;28;20026;-62
2023/06/05 03:01:49;;;;;;;12.57;5.93;;;;;;;-145.18;100.00;46660.41;4991627;28;20270;-61
2023/06/05 03:04:20;;;;;;;8.70;5.30;;;;;;;-145.18;100.00;46660.41;5002831;28;20271;-61
2023/06/05 03:06:50;;;;;;;8.67;5.67;;;;;;;-145.18;100.00;46660.41;4982040;28;20065;-61
2023/06/05 03:09:16;;;;;;;10.27;5.63;;;;;;;-145.18;100.00;46660.41;5004072;28;20772;-61
2023/06/05 03:11:41;;;;;;;14.23;5.90;;;;;;;-145.18;100.00;46660.41;5006038;28;20326;-61
2023/06/05 03:14:07;;;;;;;9.60;5.07;;;;;;;-145.18;100.00;46660.41;4985774;28;20283;-62
2023/06/05 03:16:41;;;;;;;11.27;5.90;;;;;;;-145.18;100.00;46660.41;5005600;28;20037;-62
2023/06/05 03:19:08;;;;;;;12.53;5.90;;;;;;;-145.18;100.00;46660.41;4985476;28;20025;-61
2023/06/05 03:21:39;;;;;;;11.83;5.50;;;;;;;-145.18;100.00;46660.41;5003063;28;20387;-61
2023/06/05 03:24:10;;;;;;;10.63;5.43;;;;;;;-145.18;100.00;46660.41;5006946;28;20765;-61
2023/06/05 03:26:36;;;;;;;12.03;6.23;;;;;;;-145.18;100.00;46660.41;5007464;28;20270;-61
2023/06/05 03:29:02;;;;;;;11.50;5.90;;;;;;;-145.18;100.00;46660.41;5006999;28;20271;-61
2023/06/05 03:31:27;;;;;;;10.37;6.07;;;;;;;-145.18;100.00;46660.41;5006712;28;20105;-61
2023/06/05 03:33:53;;;;;;;9.80;5.93;;;;;;;-145.18;100.00;46660.41;5011228;28;20030;-61
2023/06/05 03:36:18;;;;;;;12.60;6.43;;;;;;;-145.18;100.00;46660.41;4990393;28;20381;-61
2023/06/05 03:38:44;;;;;;;9.37;5.83;;;;;;;-145.18;100.00;46660.41;4980975;28;20392;-61
2023/06/05 03:41:10;;;;;;;15.03;7.03;;;;;;;-145.18;100.00;46660.41;5008500;28;20165;-61
2023/06/05 03:43:36;;;;;;;12.17;5.63;;;;;;;-145.18;100.00;46660.41;5008039;28;20676;-62
2023/06/05 03:46:02;;;;;;;11.53;7.10;;;;;;;-145.18;100.00;46660.41;5008321;28;20477;-61
2023/06/05 03:48:27;;;;;;;9.70;5.77;;;;;;;-145.18;100.00;46660.41;5001836;28;20026;-62
2023/06/05 03:50:53;;;;;;;12.03;6.23;;;;;;;-145.18;100.00;46660.41;5002647;28;20033;-62
2023/06/05 03:53:19;;;;;;;10.57;5.50;;;;;;;-145.18;100.00;46660.41;5011452;28;20030;-62
2023/06/05 03:55:46;;;;;;;10.73;6.10;;;;;;;-145.18;100.00;46660.41;5006932;28;20037;-61
2023/06/05 03:58:16;;;;;;;9.60;6.10;;;;;;;-145.18;100.00;46660.41;5007317;28;20732;-61
2023/06/05 04:00:43;;;;;;;13.80;6.63;;;;;;;-145.18;100.00;46660.41;5001868;28;20259;-62
2023/06/05 04:03:10;;;;;;;9.83;5.80;;;;;;;-145.18;100.00;46660.41;5002296;28;20282;-62
2023/06/05 04:05:36;;;;;;;12.20;6.13;;;;;;;-145.18;100.00;46660.41;5001077;28;20276;-61
2023/06/05 04:08:02;;;;;;;15.00;6.50;;;;;;;-145.18;100.00;46660.41;5001216;28;20780;-61
2023/06/05 04:10:28;;;;;;;13.33;6.03;;;;;;;-145.18;100.00;46660.41;5002069;28;20053;-62
2023/06/05 04:12:54;;;;;;;12.67;6.77;;;;;;;-145.18;100.00;46660.41;5008519;28;20609;-62
2023/06/05 04:15:20;;;;;;;13.17;6.47;;;;;;;-145.18;100.00;46660.41;5004682;28;20267;-61
2023/06/05 04:17:45;;;;;;;15.27;7.10;;;;;;;-145.18;100.00;46660.41;5010592;28;20277;-62
2023/06/05 04:20:14;;;;;;;13.97;6.97;;;;;;;-145.18;100.00;46660.41;4991080;28;20065;-62
2023/06/05 04:22:40;;;;;;;12.53;7.47;;;;;;;-145.18;100.00;46633.06;5010500;28;20036;-62
2023/06/05 04:25:06;;;;;;;11.30;6.93;;;;;;;-145.18;100.00;46660.41;5009280;28;20302;-62
2023/06/05 04:27:31;;;;;;;10.93;7.10;;;;;;;-145.18;100.00;46660.41;4985349;28;20764;-62
2023/06/05 04:29:56;;;;;;;11.17;6.10;;;;;;;-145.18;100.00;46660.41;5001937;28;20395;-62
2023/06/05 04:32:22;;;;;;;10.67;5.97;;;;;;;-145.18;100.00;46635.00;5004017;28;20041;-62
2023/06/05 04:34:48;;;;;;;13.23;6.20;;;;;;;-145.18;100.00;46631.09;4970969;28;20487;-62
2023/06/05 04:37:13;;;;;;;14.93;6.43;;;;;;;-145.18;100.00;46633.06;4997355;28;20037;-62
2023/06/05 04:39:39;;;;;;;10.53;5.80;;;;;;;-145.18;100.00;46629.13;5005588;28;20034;-62
2023/06/05 04:42:05;;;;;;;15.53;6.63;;;;;;;-145.18;100.00;46635.00;4984827;28;20034;-61
2023/06/05 04:44:31;;;;;;;17.53;7.27;;;;;;;-145.18;100.00;46633.06;4998849;28;20080;-62
2023/06/05 04:46:57;;;;;;;14.33;6.17;;;;;;;-145.18;100.00;46635.00;4988232;28;20029;-61
2023/06/05 04:49:26;;;;;;;12.10;6.37;;;;;;;-145.18;100.00;46631.09;5005177;28;20333;-62
2023/06/05 04:51:53;;;;;;;11.93;6.30;;;;;;;-145.18;100.00;46633.06;5012199;28;20022;-61
2023/06/05 04:54:19;;;;;;;12.27;6.63;;;;;;;-145.18;100.00;46635.00;5011978;28;20331;-62
2023/06/05 04:56:45;;;;;;;12.33;6.07;;;;;;;-145.18;100.00;46633.06;5012382;28;20340;-62
2023/06/05 04:59:11;;;;;;;11.53;7.13;;;;;;;-145.18;100.00;46631.09;5007791;28;20366;-62
2023/06/05 05:01:36;;;;;;;13.80;6.37;;;;;;;-145.18;100.00;46631.09;5003587;28;20371;-62
2023/06/05 05:04:02;;;;;;;13.17;6.37;;;;;;;-145.18;100.00;46631.09;5011000;28;20038;-62
2023/06/05 05:06:27;;;;;;;18.07;7.27;;;;;;;-145.18;100.00;46633.06;5012375;28;20037;-62
2023/06/05 05:08:53;;;;;;;16.97;6.90;;;;;;;-145.18;100.00;46631.09;5011668;28;20511;-61
2023/06/05 05:11:20;;;;;;;10.20;6.43;;;;;;;-145.18;100.00;46631.09;5012058;28;20367;-62
2023/06/05 05:13:45;;;;;;;12.93;6.63;;;;;;;-145.18;100.00;46633.06;5012214;28;20022;-62
2023/06/05 05:16:11;;;;;;;10.70;6.27;;;;;;;-145.18;100.00;46635.00;5011835;28;20314;-61
2023/06/05 05:18:40;;;;;;;11.37;6.50;;;;;;;-145.18;100.00;46633.06;5012051;28;20026;-62
2023/06/05 05:21:06;;;;;;;13.13;6.97;;;;;;;-145.18;100.00;46635.00;5012023;28;20049;-61
2023/06/05 05:23:33;;;;;;;14.23;6.93;;;;;;;-145.18;100.00;46638.91;4994036;28;20255;-61
2023/06/05 05:26:02;;;;;;;15.20;6.33;;;;;;;-145.18;100.00;46635.00;5011420;28;20291;-62
2023/06/05 05:28:28;;;;;;;13.73;6.30;;;;;;;-145.18;100.00;46636.94;5011807;28;20275;-62
2023/06/05 05:30:55;;;;;;;16.57;6.63;;;;;;;-145.18;100.00;46636.94;4993897;28;20267;-61
2023/06/05 05:33:22;;;;;;;15.97;7.13;;;;;;;-145.18;100.00;46638.91;5011776;28;20882;-62
2023/06/05 05:35:47;;;;;;;12.80;7.17;;;;;;;-145.18;100.00;46636.94;4994295;28;20314;-61
2023/06/05 05:38:12;;;;;;;14.83;6.87;;;;;;;-145.18;100.00;46638.91;5023069;28;20271;-62
2023/06/05 05:40:38;;;;;;;21.10;6.87;;;;;;;-145.18;100.00;46638.91;4993715;28;20141;-61
2023/06/05 05:43:03;;;;;;;12.20;5.97;;;;;;;-145.18;100.00;46631.09;4993990;28;20038;-61
2023/06/05 05:45:28;;;;;;;15.80;7.03;;;;;;;-145.18;100.00;46636.94;5011665;28;20025;-61
2023/06/05 05:47:54;;;;;;;12.37;5.90;;;;;;;-145.18;100.00;46640.88;5011669;28;20034;-61
2023/06/05 05:50:19;;;;;;;15.13;6.37;;;;;;;-145.18;100.00;46642.81;5012014;28;20399;-61
2023/06/05 05:52:45;;;;;;;14.20;6.27;;;;;;;-145.18;100.00;46644.78;5010013;28;20054;-61
2023/06/05 05:55:10;;;;;;;13.67;7.10;;;;;;;-145.18;100.00;46644.78;5014417;28;20486;-61
2023/06/05 05:57:36;;;;;;;13.20;7.10;;;;;;;-145.18;100.00;46644.78;5015105;28;20515;-61
2023/06/05 06:00:05;;;;;;;12.93;7.00;;;;;;;-145.18;100.00;46644.78;4997725;28;20034;-61
2023/06/05 06:02:32;;;;;;;16.23;7.27;;;;;;;-145.18;100.00;46642.81;4998235;28;20041;-61
2023/06/05 06:04:57;;;;;;;15.03;7.77;;;;;;;-145.18;100.00;46644.78;5015641;28;20259;-61
2023/06/05 06:07:22;;;;;;;12.20;6.70;;;;;;;-145.18;100.00;46648.69;4997852;28;20045;-61
2023/06/05 06:09:48;;;;;;;12.30;7.17;;;;;;;-145.18;100.00;46648.69;5015550;28;20033;-61
2023/06/05 06:12:13;;;;;;;11.40;6.40;;;;;;;-145.18;100.00;46648.69;5014709;28;20080;-62
2023/06/05 06:14:39;;;;;;;14.17;6.83;;;;;;;-145.18;100.00;46648.69;4997804;28;20077;-62
2023/06/05 06:17:05;;;;;;;13.30;6.40;;;;;;;-145.18;100.00;46652.59;5014539;28;20038;-61
2023/06/05 06:19:32;;;;;;;12.43;6.30;;;;;;;-145.18;100.00;46648.69;5015328;28;20037;-62
2023/06/05 06:21:58;;;;;;;14.00;7.10;;;;;;;-145.18;100.00;46652.59;5014932;28;20105;-62
2023/06/05 06:24:24;;;;;;;12.23;5.57;;;;;;;-145.18;100.00;46650.63;5015081;28;20115;-61
2023/06/05 06:26:52;;;;;;;12.17;6.70;;;;;;;-145.18;100.00;46652.59;5014994;28;20060;-61
2023/06/05 06:29:22;;;;;;;12.03;6.23;;;;;;;-145.18;100.00;46648.69;5011902;28;20276;-62
2023/06/05 06:31:49;;;;;;;14.33;6.43;;;;;;;-145.18;100.00;46650.63;4992615;28;20252;-62
2023/06/05 06:34:14;;;;;;;12.27;6.37;;;;;;;-145.18;100.00;46648.69;4993290;28;20120;-62
2023/06/05 06:36:40;;;;;;;14.57;6.47;;;;;;;-145.18;100.00;46646.72;5016767;28;20022;-61
2023/06/05 06:39:07;;;;;;;10.77;5.80;;;;;;;-145.18;100.00;46640.88;5021909;28;20486;-61
2023/06/05 06:41:34;;;;;;;11.60;6.63;;;;;;;-145.18;100.00;46640.88;5013780;28;20398;-62
2023/06/05 06:43:59;;;;;;;14.10;6.03;;;;;;;-145.18;100.00;46635.00;5014127;28;20064;-61
2023/06/05 06:46:25;;;;;;;12.67;6.40;;;;;;;-145.18;100.00;46629.13;5013901;28;20838;-61
2023/06/05 06:48:51;;;;;;;15.33;6.20;;;;;;;-145.18;100.00;46631.09;5013695;28;20030;-61
2023/06/05 06:51:16;;;;;;;8.67;5.77;;;;;;;-145.18;100.00;46625.22;5013916;28;20110;-62
2023/06/05 06:53:43;;;;;;;10.27;5.90;;;;;;;-145.18;100.00;46621.31;4996288;28;20048;-61
2023/06/05 06:56:08;;;;;;;14.40;6.20;;;;;;;-145.18;100.00;46597.88;5014172;28;20069;-61
2023/06/05 06:58:34;;;;;;;10.67;5.77;;;;;;;-145.18;100.00;46568.59;5013604;28;20614;-62
2023/06/05 07:00:59;;;;;;;9.17;5.37;;;;;;;-145.18;100.00;46574.44;4996038;28;20057;-62
2023/06/05 07:03:25;;;;;;;9.83;6.53;;;;;;;-145.18;100.00;46564.69;5013782;28;20042;-61
2023/06/05 07:05:51;;;;;;;18.47;6.37;;;;;;;-145.18;100.00;46564.69;5012702;28;20402;-62
2023/06/05 07:08:16;;;;;;;9.37;5.37;;;;;;;-145.18;100.00;46537.34;4995671;28;20044;-62
2023/06/05 07:10:42;;;;;;;12.00;5.53;;;;;;;-145.18;100.00;46533.44;5011453;28;20030;-61
2023/06/05 07:13:07;;;;;;;10.73;6.10;;;;;;;-145.18;100.00;46523.66;4985245;28;20038;-62
2023/06/05 07:15:33;;;;;;;10.33;5.63;;;;;;;-145.18;100.00;46525.63;5012948;28;20491;-62
2023/06/05 07:17:58;;;;;;;10.83;6.10;;;;;;;-145.18;100.00;46517.81;5013262;28;20041;-61
2023/06/05 07:20:23;;;;;;;10.87;6.00;;;;;;;-145.18;100.00;46517.81;5000368;28;20064;-61
2023/06/05 07:22:49;;;;;;;13.13;6.40;;;;;;;-145.18;100.00;46519.75;4995855;28;20084;-62
2023/06/05 07:25:16;;;;;;;11.30;6.40;;;;;;;-145.18;100.00;46521.72;5008624;28;20129;-61
2023/06/05 07:27:44;;;;;;;11.13;5.60;;;;;;;-145.18;100.00;46525.63;5012948;28;20041;-61
2023/06/05 07:30:10;;;;;;;8.90;5.77;;;;;;;-145.18;100.00;46517.81;5013398;28;20036;-62
2023/06/05 07:32:35;;;;;;;9.40;5.60;;;;;;;-145.18;100.00;46527.56;5012906;28;20112;-61
2023/06/05 07:35:02;;;;;;;13.80;6.40;;;;;;;-145.18;100.00;46523.66;5012971;28;20076;-62
2023/06/05 07:37:27;;;;;;;11.53;5.63;;;;;;;-145.18;100.00;46519.75;5023243;28;20068;-62
2023/06/05 07:39:53;;;;;;;10.37;5.53;;;;;;;-145.18;100.00;46521.72;5008556;28;20436;-62
2023/06/05 07:42:19;;;;;;;11.50;5.50;;;;;;;-145.18;100.00;46533.44;4989654;28;20048;-62
2023/06/05 07:44:45;;;;;;;12.03;5.47;;;;;;;-145.18;100.00;46533.44;5012721;28;20471;-62
2023/06/05 07:47:10;;;;;;;13.13;5.43;;;;;;;-145.18;100.00;46535.38;5012875;28;20084;-62
2023/06/05 07:49:35;;;;;;;10.67;5.43;;;;;;;-145.18;100.00;46539.28;5012635;28;20083;-62
2023/06/05 07:52:01;;;;;;;7.07;4.90;;;;;;;-145.18;100.00;46533.44;5013034;28;20102;-61
2023/06/05 07:54:26;;;;;;;10.87;6.10;;;;;;;-145.18;100.00;46535.38;5012888;28;20471;-62
2023/06/05 07:56:52;;;;;;;11.23;5.40;;;;;;;-145.18;100.00;46527.56;5013162;28;20112;-61
2023/06/05 07:59:22;;;;;;;11.13;5.37;;;;;;;-145.18;100.00;46533.44;5012008;28;20038;-62
2023/06/05 08:01:49;;;;;;;8.73;5.17;;;;;;;-145.18;100.00;46545.16;5012840;28;20189;-61
2023/06/05 08:04:15;;;;;;;10.30;5.63;;;;;;;-145.18;100.00;46537.34;5012620;28;20034;-62
2023/06/05 08:06:41;;;;;;;11.47;5.10;;;;;;;-145.18;100.00;46539.28;5012947;28;20033;-61
2023/06/05 08:09:10;;;;;;;11.30;5.37;;;;;;;-145.18;100.00;46533.44;5012221;28;20453;-62
2023/06/05 08:11:37;;;;;;;12.37;5.43;;;;;;;-145.18;100.00;46543.19;5012734;28;20033;-62
2023/06/05 08:14:03;;;;;;;10.13;6.00;;;;;;;-145.18;100.00;46543.19;5012696;28;20026;-62
2023/06/05 08:16:29;;;;;;;8.73;5.70;;;;;;;-145.18;100.00;46547.09;4994738;28;20037;-62
2023/06/05 08:18:55;;;;;;;8.93;4.90;;;;;;;-145.18;100.00;46552.97;5011537;28;20030;-62
2023/06/05 08:21:20;;;;;;;11.60;5.53;;;;;;;-145.18;100.00;46554.91;5012408;28;20048;-62
2023/06/05 08:23:46;;;;;;;8.03;4.53;;;;;;;-145.18;100.00;46547.09;4994686;28;20462;-62
2023/06/05 08:26:11;;;;;;;10.43;5.07;;;;;;;-145.18;100.00;46558.81;5011754;28;20057;-62
2023/06/05 08:28:41;;;;;;;11.67;5.50;;;;;;;-145.18;100.00;46584.22;4994965;28;20030;-62
2023/06/05 08:31:10;;;;;;;11.10;5.93;;;;;;;-145.18;100.00;46564.69;5011735;28;20030;-62
2023/06/05 08:33:37;;;;;;;8.23;4.73;;;;;;;-145.18;100.00;46556.88;5012224;28;20525;-62
2023/06/05 08:36:03;;;;;;;8.73;5.53;;;;;;;-145.18;100.00;46558.81;5011550;28;20022;-62
2023/06/05 08:38:29;;;;;;;9.50;5.40;;;;;;;-145.18;100.00;46558.81;5005821;28;20025;-62
2023/06/05 08:41:07;;;;;;;11.93;5.90;;;;;;;-145.18;100.00;46560.78;5005425;28;20034;-62
2023/06/05 08:43:35;;;;;;;8.40;4.80;;;;;;;-145.18;100.00;46590.06;5012314;28;20113;-62
2023/06/05 08:46:01;;;;;;;9.47;5.17;;;;;;;-145.18;100.00;46566.63;5011859;28;20707;-62
2023/06/05 08:48:32;;;;;;;8.37;5.20;;;;;;;-145.18;100.00;46562.72;5011663;28;20025;-62
2023/06/05 08:50:58;;;;;;;11.40;5.73;;;;;;;-145.18;100.00;46588.13;5011637;28;20026;-62
2023/06/05 08:53:28;;;;;;;9.73;4.90;;;;;;;-145.18;100.00;46566.63;5012048;28;20041;-62
2023/06/05 08:55:55;;;;;;;10.57;5.23;;;;;;;-145.18;100.00;46593.97;5011670;28;20395;-62
2023/06/05 08:58:21;;;;;;;11.60;6.27;;;;;;;-145.18;100.00;46607.66;5011466;28;20034;-62
2023/06/05 09:00:48;;;;;;;9.70;5.57;;;;;;;-145.18;100.00;46605.69;5011814;28;20030;-62
2023/06/05 09:03:15;;;;;;;9.27;6.13;;;;;;;-145.18;100.00;46607.66;5012073;28;20104;-62
2023/06/05 09:05:40;;;;;;;12.93;5.03;;;;;;;-145.18;100.00;46611.56;5011572;28;20026;-62
2023/06/05 09:08:06;;;;;;;8.07;5.37;;;;;;;-145.18;100.00;46617.41;5011917;28;20038;-60
2023/06/05 09:10:32;;;;;;;13.47;5.57;;;;;;;-145.18;100.00;46613.50;5011631;28;20101;-62
2023/06/05 09:13:01;;;;;;;7.37;5.47;;;;;;;-145.18;100.00;46607.66;5011673;28;20109;-62
2023/06/05 09:15:28;;;;;;;10.67;5.40;;;;;;;-145.18;100.00;46642.81;5011418;28;20068;-62
2023/06/05 09:18:15;;;;;;;10.53;5.30;;;;;;;-145.18;100.00;46709.22;5011470;28;20548;-62
2023/06/05 09:20:42;;;;;;;8.03;4.80;;;;;;;-145.18;100.00;46783.47;5000182;28;20161;-62
2023/06/05 09:23:41;;;;;;;10.77;5.10;;;;;;;-145.18;100.00;47062.81;4993719;28;20483;-63
2023/06/05 09:26:09;;;;;;;7.87;5.20;;;;;;;-145.18;100.00;47012.00;4981709;28;20054;-62
2023/06/05 09:28:34;;;;;;;10.37;5.47;;;;;;;-145.18;100.00;47219.09;5011445;28;20105;-63
2023/06/05 09:31:03;;;;;;;9.50;5.47;;;;;;;-145.18;100.00;47226.91;5008280;28;20612;-62
2023/06/05 09:33:34;;;;;;;9.73;5.27;;;;;;;-145.18;100.00;47209.31;5002496;28;20041;-62
2023/06/05 09:36:08;;;;;;;8.57;5.07;;;;;;;-145.18;100.00;47203.47;5015943;28;20057;-62
2023/06/05 09:38:34;;;;;;;9.77;5.50;;;;;;;-145.18;100.00;47187.84;5003590;28;20022;-63
2023/06/05 09:41:07;;;;;;;7.00;5.03;;;;;;;-145.18;100.00;47164.38;5015218;28;20156;-62
2023/06/05 09:43:33;;;;;;;7.43;4.43;;;;;;;-145.18;100.00;47162.44;5015236;28;20065;-63
2023/06/05 09:46:05;;;;;;;8.53;5.17;;;;;;;-145.18;100.00;47170.25;5015188;28;20079;-62
2023/06/05 09:48:32;;;;;;;8.93;5.00;;;;;;;-145.18;100.00;47144.84;5011917;28;20113;-63
2023/06/05 09:51:08;;;;;;;8.80;5.43;;;;;;;-145.18;100.00;47133.13;4995042;28;20037;-62
2023/06/05 09:53:36;;;;;;;10.90;5.10;;;;;;;-145.18;100.00;47139.00;5014790;28;20471;-62
2023/06/05 09:56:03;;;;;;;9.60;6.07;;;;;;;-145.18;100.00;47140.94;5015594;28;20045;-62
2023/06/05 09:58:28;;;;;;;9.30;5.63;;;;;;;-145.18;100.00;47148.75;5014577;28;20033;-62
2023/06/05 10:00:59;;;;;;;7.57;5.03;;;;;;;-145.18;100.00;47113.59;5014726;28;20038;-60
2023/06/05 10:03:27;;;;;;;11.10;5.57;;;;;;;-145.18;100.00;47125.31;5014269;28;20045;-61
2023/06/05 10:05:53;;;;;;;10.03;5.70;;;;;;;-145.18;100.00;47103.81;5002159;28;20140;-63
2023/06/05 10:08:18;;;;;;;9.90;5.90;;;;;;;-145.18;100.00;47105.78;5014976;28;20053;-61
2023/06/05 10:10:44;;;;;;;6.97;4.70;;;;;;;-145.18;100.00;47117.50;4997512;28;20121;-63
2023/06/05 10:13:11;;;;;;;8.80;5.40;;;;;;;-145.18;100.00;47090.16;5014922;28;20099;-62
2023/06/05 10:15:38;;;;;;;10.07;4.80;;;;;;;-145.18;100.00;47107.72;5014277;28;20022;-62
2023/06/05 10:18:04;;;;;;;12.23;5.87;;;;;;;-145.18;100.00;47082.34;5014309;28;20033;-62
2023/06/05 10:20:30;;;;;;;7.13;4.83;;;;;;;-145.18;100.00;47082.34;5011394;28;20030;-61
2023/06/05 10:22:56;;;;;;;9.47;4.97;;;;;;;-145.18;100.00;47113.59;5008799;28;20030;-62
2023/06/05 10:25:23;;;;;;;8.23;4.93;;;;;;;-145.18;100.00;47109.69;5014238;28;20470;-63
2023/06/05 10:28:05;;;;;;;13.60;4.90;;;;;;;-145.18;100.00;47121.41;5014247;28;20521;-62
2023/06/05 10:30:36;;;;;;;9.67;4.80;;;;;;;-145.18;100.00;47119.47;5003364;28;20046;-62
2023/06/05 10:33:24;;;;;;;7.37;4.87;;;;;;;-145.18;100.00;47115.56;5013366;28;20025;-62
2023/06/05 10:36:10;;;;;;;10.20;4.50;;;;;;;-145.18;100.00;47088.19;5013905;28;20395;-63
2023/06/05 10:38:37;;;;;;;7.90;4.38;;;;;;;-145.18;100.00;47086.25;5003057;28;20036;-62
2023/06/05 10:41:04;;;;;;;8.73;5.13;;;;;;;-145.18;100.00;47076.47;5013115;28;20029;-63
2023/06/05 10:43:45;;;;;;;8.00;4.67;;;;;;;-145.18;100.00;47084.28;5014145;28;20062;-62
2023/06/05 10:46:28;;;;;;;8.10;4.30;;;;;;;-145.18;100.00;47070.63;5013481;28;20028;-63
2023/06/05 10:49:19;;;;;;;10.00;4.87;;;;;;;-145.18;100.00;47056.94;5014095;28;20025;-63
2023/06/05 10:51:53;;;;;;;8.80;4.60;;;;;;;-145.18;100.00;47064.75;4991448;28;20026;-63
2023/06/05 10:54:21;;;;;;;7.30;4.63;;;;;;;-145.18;100.00;47056.94;5013222;28;20471;-63
2023/06/05 10:57:03;;;;;;;5.70;4.37;;;;;;;-145.18;100.00;47043.28;5014098;28;20036;-63
2023/06/05 10:59:34;;;;;;;12.37;4.77;;;;;;;-145.18;100.00;47045.22;5001944;28;20076;-63
2023/06/05 11:02:26;;;;;;;7.10;4.07;;;;;;;-145.18;100.00;47041.31;5013446;28;20033;-63
2023/06/05 11:04:55;;;;;;;10.80;5.17;;;;;;;-145.18;100.00;47039.34;5008517;28;20140;-63